Time;durP1;ratioP1;P1;durP2;ratioP2;P2;SDS_P1;SDS_P2;PMS_P1;PMS_P2;Temp;Humidity;BMP_temperature;BMP_pressure;BME280_temperature;BME280_humidity;BME280_pressure;Samples;Min_cycle;Max_cycle;Signal;HPM_P1;HPM_P2
2022/01/17 00:01:08;;;;;;;12.63;2.08;;;6.60;99.90;;;;;;5138020;27;20093;-62
2022/01/17 00:03:34;;;;;;;12.60;2.10;;;6.60;99.90;;;;;;5158637;27;20042;-64
2022/01/17 00:06:00;;;;;;;12.43;2.00;;;6.60;99.90;;;;;;5158491;27;20038;-64
2022/01/17 00:08:26;;;;;;;11.35;2.28;;;6.60;99.90;;;;;;5157852;27;20034;-64
2022/01/17 00:10:52;;;;;;;15.52;2.33;;;6.60;99.90;;;;;;5141214;27;20175;-63
2022/01/17 00:13:26;;;;;;;19.70;2.58;;;6.60;99.90;;;;;;5119206;27;20046;-63
2022/01/17 00:16:03;;;;;;;12.65;2.80;;;6.60;99.90;;;;;;5137464;27;20118;-63
2022/01/17 00:21:05;;;;;;;9.68;1.90;;;6.60;99.90;;;;;;5155666;27;20078;-63
2022/01/17 00:23:32;;;;;;;15.27;2.40;;;6.60;99.90;;;;;;5157394;27;20046;-63
2022/01/17 00:25:57;;;;;;;15.52;2.28;;;6.50;99.90;;;;;;5140048;27;20038;-63
2022/01/17 00:28:23;;;;;;;9.00;2.15;;;6.60;99.90;;;;;;5139770;27;20039;-63
2022/01/17 00:30:49;;;;;;;15.20;2.15;;;6.50;99.90;;;;;;5141139;27;20047;-62
2022/01/17 00:33:14;;;;;;;11.73;2.25;;;6.50;99.90;;;;;;5137291;27;20035;-63
2022/01/17 00:35:41;;;;;;;14.18;2.60;;;6.50;99.90;;;;;;5118764;27;20042;-65
2022/01/17 00:38:07;;;;;;;17.35;2.95;;;6.40;99.90;;;;;;5118628;27;20080;-64
2022/01/17 00:40:34;;;;;;;13.63;2.53;;;6.40;99.90;;;;;;5137038;27;20107;-63
2022/01/17 00:42:59;;;;;;;10.85;2.85;;;6.40;99.90;;;;;;5136997;27;20050;-63
2022/01/17 00:45:27;;;;;;;13.15;2.08;;;6.40;99.90;;;;;;5118336;27;20043;-63
2022/01/17 00:47:57;;;;;;;6.68;1.80;;;6.30;99.90;;;;;;5136645;27;20125;-64
2022/01/17 00:50:27;;;;;;;14.43;2.47;;;6.30;99.90;;;;;;5149543;27;20424;-64
2022/01/17 00:52:53;;;;;;;51.72;16.85;;;6.30;99.90;;;;;;5157644;27;20151;-64
2022/01/17 00:55:18;;;;;;;45.67;12.98;;;6.30;99.90;;;;;;5138978;27;20108;-63
2022/01/17 00:57:44;;;;;;;32.75;7.13;;;6.30;99.90;;;;;;5139212;27;20077;-63
2022/01/17 01:00:11;;;;;;;25.17;4.03;;;6.30;99.90;;;;;;5138838;27;20455;-64
2022/01/17 01:02:37;;;;;;;22.67;3.05;;;6.20;99.90;;;;;;5138904;27;20058;-63
2022/01/17 01:05:05;;;;;;;13.50;2.50;;;6.20;99.90;;;;;;5139040;27;20391;-63
2022/01/17 01:07:30;;;;;;;14.40;2.42;;;6.20;99.90;;;;;;5139456;27;20049;-63
2022/01/17 01:10:02;;;;;;;14.43;2.22;;;6.20;99.90;;;;;;5147101;27;20355;-63
2022/01/17 01:12:28;;;;;;;14.63;2.15;;;6.20;99.90;;;;;;5101367;27;20031;-63
2022/01/17 01:14:54;;;;;;;15.77;2.80;;;6.20;99.90;;;;;;5118470;27;20471;-63
2022/01/17 01:18:14;;;;;;;17.17;2.38;;;6.20;99.90;;;;;;5117714;27;20142;-63
2022/01/17 01:28:27;;;;;;;10.10;2.22;;;6.30;99.90;;;;;;5117748;27;20376;-64
2022/01/17 01:30:55;;;;;;;17.05;2.47;;;6.20;99.90;;;;;;5117688;27;20533;-64
2022/01/17 01:33:42;;;;;;;17.45;2.65;;;6.10;99.90;;;;;;5117378;27;20043;-64
2022/01/17 01:36:19;;;;;;;14.10;2.83;;;6.10;99.90;;;;;;5117639;27;20039;-62
2022/01/17 01:38:45;;;;;;;21.23;3.30;;;6.10;99.90;;;;;;5135579;27;20067;-63
2022/01/17 01:41:11;;;;;;;14.70;3.15;;;6.10;99.90;;;;;;5155233;27;20115;-64
2022/01/17 01:43:36;;;;;;;13.63;2.15;;;6.10;99.90;;;;;;5137959;27;20038;-63
2022/01/17 01:46:02;;;;;;;16.88;2.15;;;6.00;99.90;;;;;;5138092;27;20044;-64
2022/01/17 01:48:30;;;;;;;11.93;2.40;;;5.90;99.90;;;;;;5137949;27;20038;-64
2022/01/17 01:50:56;;;;;;;15.93;2.90;;;5.90;99.90;;;;;;5120292;27;20039;-65
2022/01/17 01:53:23;;;;;;;16.83;2.67;;;5.90;99.90;;;;;;5117538;27;20516;-61
2022/01/17 01:55:51;;;;;;;17.63;3.00;;;5.80;99.90;;;;;;5117199;27;20428;-62
2022/01/17 01:58:19;;;;;;;14.93;2.83;;;5.80;99.90;;;;;;5117456;27;20122;-63
2022/01/17 02:00:45;;;;;;;18.08;2.85;;;5.80;99.90;;;;;;5150854;27;20378;-63
2022/01/17 02:03:10;;;;;;;15.55;2.85;;;5.70;99.90;;;;;;5137901;27;20039;-63
2022/01/17 02:05:36;;;;;;;22.67;4.00;;;5.60;99.90;;;;;;5156147;27;20093;-63
2022/01/17 02:08:05;;;;;;;20.40;2.83;;;5.60;99.90;;;;;;5155902;27;20039;-64
2022/01/17 02:10:31;;;;;;;17.38;2.53;;;5.60;99.90;;;;;;5123433;27;20054;-63
2022/01/17 02:12:57;;;;;;;14.70;2.97;;;5.50;99.90;;;;;;5117012;27;20035;-63
2022/01/17 02:15:23;;;;;;;10.85;2.83;;;5.50;99.90;;;;;;5116749;28;20168;-64
2022/01/17 02:17:56;;;;;;;15.40;2.88;;;5.50;99.90;;;;;;5116894;27;20046;-64
2022/01/17 02:20:27;;;;;;;15.02;2.80;;;5.50;99.90;;;;;;5117412;28;20047;-63
2022/01/17 02:22:53;;;;;;;10.18;2.25;;;5.50;99.90;;;;;;5135405;27;20035;-63
2022/01/17 02:25:18;;;;;;;18.55;2.80;;;5.50;99.90;;;;;;5135314;27;20039;-63
2022/01/17 02:27:45;;;;;;;16.55;2.85;;;5.50;99.90;;;;;;5117095;28;20122;-63
2022/01/17 02:30:13;;;;;;;18.83;2.88;;;5.50;99.90;;;;;;5116848;28;20372;-64
2022/01/17 02:32:39;;;;;;;14.48;2.58;;;5.50;99.90;;;;;;5135267;28;20118;-63
2022/01/17 02:35:23;;;;;;;13.98;2.20;;;5.50;99.90;;;;;;5116984;28;20043;-64
2022/01/17 02:37:49;;;;;;;14.40;2.47;;;5.60;99.90;;;;;;5100031;28;20126;-63
2022/01/17 02:40:20;;;;;;;16.73;3.47;;;5.50;99.90;;;;;;5146225;27;20046;-63
2022/01/17 02:43:03;;;;;;;13.60;2.20;;;5.50;99.90;;;;;;5155877;27;20102;-64
2022/01/17 02:45:36;;;;;;;16.23;2.72;;;5.50;99.90;;;;;;5138545;27;20088;-64
2022/01/17 02:48:06;;;;;;;19.27;2.38;;;5.50;99.90;;;;;;5159904;27;20057;-63
2022/01/17 02:50:31;;;;;;;14.73;2.50;;;5.40;99.90;;;;;;5128092;27;20100;-63
2022/01/17 02:53:01;;;;;;;17.30;3.17;;;5.40;99.90;;;;;;5120770;27;20031;-63
2022/01/17 02:55:28;;;;;;;10.85;2.72;;;5.30;99.90;;;;;;5120588;27;20039;-63
2022/01/17 02:57:54;;;;;;;10.13;2.85;;;5.30;99.90;;;;;;5120870;27;20035;-64
2022/01/17 03:00:20;;;;;;;17.48;2.90;;;5.30;99.90;;;;;;5150442;27;20417;-63
2022/01/17 03:02:48;;;;;;;15.57;3.22;;;5.30;99.90;;;;;;5141122;27;20449;-64
2022/01/17 03:05:15;;;;;;;13.48;2.63;;;5.20;99.90;;;;;;5141067;27;20483;-64
2022/01/17 03:07:41;;;;;;;16.50;2.72;;;5.20;99.90;;;;;;5141258;27;20148;-63
2022/01/17 03:10:14;;;;;;;14.55;2.78;;;5.20;99.90;;;;;;5131450;27;20055;-63
2022/01/17 03:12:39;;;;;;;17.27;2.70;;;5.10;99.90;;;;;;5120335;27;20447;-63
2022/01/17 03:15:06;;;;;;;16.75;2.90;;;5.10;99.90;;;;;;5103328;27;20039;-63
2022/01/17 03:17:31;;;;;;;14.80;2.97;;;5.10;99.90;;;;;;5102744;27;20055;-62
2022/01/17 03:19:57;;;;;;;17.40;2.40;;;5.10;99.90;;;;;;5121048;27;20053;-63
2022/01/17 03:22:22;;;;;;;17.67;3.03;;;5.00;99.90;;;;;;5138251;27;20062;-62
2022/01/17 03:24:49;;;;;;;20.23;4.03;;;5.00;99.90;;;;;;5120561;27;20126;-63
2022/01/17 03:27:15;;;;;;;16.20;2.45;;;5.10;99.90;;;;;;5119908;27;20127;-63
2022/01/17 03:29:41;;;;;;;21.90;3.78;;;5.10;99.90;;;;;;5129807;27;20045;-63
2022/01/17 03:32:07;;;;;;;18.75;3.05;;;5.10;99.90;;;;;;5140047;27;20045;-63
2022/01/17 03:34:32;;;;;;;12.50;2.53;;;5.10;99.90;;;;;;5140001;27;20111;-62
2022/01/17 03:36:58;;;;;;;19.95;3.33;;;5.00;99.90;;;;;;5140399;27;20039;-63
2022/01/17 03:39:23;;;;;;;11.05;2.58;;;5.00;99.90;;;;;;5157524;27;20031;-63
2022/01/17 03:41:52;;;;;;;15.73;2.90;;;5.10;99.90;;;;;;5140124;27;20447;-62
2022/01/17 03:44:18;;;;;;;13.00;2.78;;;5.00;99.90;;;;;;5123273;27;20045;-61
2022/01/17 03:46:43;;;;;;;17.10;2.92;;;5.10;99.90;;;;;;5140091;27;20042;-63
2022/01/17 03:49:09;;;;;;;16.63;3.30;;;5.10;99.90;;;;;;5157770;27;20039;-64
2022/01/17 03:51:37;;;;;;;12.68;2.47;;;5.10;99.90;;;;;;5158133;27;20454;-63
2022/01/17 03:54:03;;;;;;;19.60;3.15;;;5.10;99.90;;;;;;5140038;27;20137;-64
2022/01/17 03:56:29;;;;;;;15.05;3.28;;;5.20;99.90;;;;;;5139787;27;20034;-64
2022/01/17 03:58:54;;;;;;;15.00;2.80;;;5.20;99.90;;;;;;5139261;27;20495;-65
2022/01/17 04:01:20;;;;;;;14.52;2.55;;;5.30;99.90;;;;;;5122337;27;20165;-64
2022/01/17 04:03:46;;;;;;;19.80;2.67;;;5.30;99.90;;;;;;5139719;27;20109;-65
2022/01/17 04:06:15;;;;;;;14.18;2.42;;;5.30;99.90;;;;;;5139597;27;20471;-64
2022/01/17 04:08:41;;;;;;;15.73;2.35;;;5.40;99.90;;;;;;5158067;27;20054;-63
2022/01/17 04:11:07;;;;;;;13.63;3.03;;;5.40;99.90;;;;;;5156910;27;20049;-64
2022/01/17 04:13:34;;;;;;;15.15;2.85;;;5.50;99.90;;;;;;5139354;27;20121;-63
2022/01/17 04:16:00;;;;;;;12.63;2.42;;;5.50;99.90;;;;;;5139187;27;20103;-64
2022/01/17 04:18:25;;;;;;;16.30;2.88;;;5.50;99.90;;;;;;5157846;27;20050;-63
2022/01/17 04:20:53;;;;;;;12.88;2.47;;;5.50;99.90;;;;;;5124364;27;20047;-63
2022/01/17 04:23:21;;;;;;;15.43;2.80;;;5.60;99.90;;;;;;5119060;27;20433;-62
2022/01/17 04:25:48;;;;;;;16.55;2.55;;;5.60;99.90;;;;;;5118530;27;20043;-63
2022/01/17 04:28:19;;;;;;;14.70;2.90;;;5.50;99.90;;;;;;5118447;27;20523;-65
2022/01/17 04:30:54;;;;;;;13.02;2.70;;;5.50;99.90;;;;;;5152269;27;20099;-64
2022/01/17 04:33:19;;;;;;;13.15;2.40;;;5.50;99.90;;;;;;5139393;27;20350;-63
2022/01/17 04:35:45;;;;;;;13.50;2.60;;;5.40;99.90;;;;;;5157462;27;20436;-63
2022/01/17 04:38:16;;;;;;;15.95;2.92;;;5.40;99.90;;;;;;5157515;27;20470;-63
2022/01/17 04:40:49;;;;;;;12.65;2.33;;;5.40;99.90;;;;;;5156151;27;20114;-63
2022/01/17 04:45:07;;;;;;;18.20;2.80;;;5.30;99.90;;;;;;5139324;27;20725;-64
2022/01/17 04:46:08;;;;;;;16.98;2.50;;;5.30;99.90;;;;;;5147281;27;20444;-63
2022/01/17 04:48:35;;;;;;;13.63;2.67;;;5.20;99.90;;;;;;5138722;27;20118;-63
2022/01/17 04:51:01;;;;;;;13.77;2.47;;;5.30;99.90;;;;;;5156280;27;20045;-63
2022/01/17 04:53:28;;;;;;;11.10;3.03;;;5.30;99.90;;;;;;5138832;27;20078;-63
2022/01/17 04:55:54;;;;;;;16.02;2.47;;;5.30;99.90;;;;;;5138537;27;20531;-64
2022/01/17 04:58:20;;;;;;;17.65;3.10;;;5.40;99.90;;;;;;5157121;27;20039;-63
2022/01/17 05:00:46;;;;;;;14.55;2.30;;;5.30;99.90;;;;;;5156434;27;20111;-62
2022/01/17 05:03:20;;;;;;;15.02;2.90;;;5.40;99.90;;;;;;5157063;27;20367;-64
2022/01/17 05:05:47;;;;;;;12.32;2.60;;;5.40;99.90;;;;;;5156976;27;20066;-63
2022/01/17 05:08:13;;;;;;;15.82;3.17;;;5.40;99.90;;;;;;5137950;27;20122;-63
2022/01/17 05:10:41;;;;;;;15.35;2.50;;;5.30;99.90;;;;;;5124566;27;20114;-64
2022/01/17 05:13:09;;;;;;;22.25;2.95;;;5.30;99.90;;;;;;5118178;27;20043;-64
2022/01/17 05:15:45;;;;;;;13.48;2.88;;;5.30;99.90;;;;;;5117681;27;21137;-65
2022/01/17 05:20:41;;;;;;;14.55;2.70;;;5.30;99.90;;;;;;5130315;27;20039;-64
2022/01/17 05:23:07;;;;;;;12.50;2.13;;;5.30;99.90;;;;;;5138054;27;20091;-63
2022/01/17 05:25:33;;;;;;;20.35;3.10;;;5.40;99.90;;;;;;5138321;27;20047;-64
2022/01/17 05:27:59;;;;;;;13.05;2.95;;;5.40;99.90;;;;;;5138413;27;20102;-63
2022/01/17 05:30:25;;;;;;;13.93;2.60;;;5.40;99.90;;;;;;5136939;27;20039;-63
2022/01/17 05:32:52;;;;;;;13.48;3.22;;;5.40;99.90;;;;;;5137940;27;20043;-64
2022/01/17 05:35:18;;;;;;;21.05;3.13;;;5.50;99.90;;;;;;5155636;27;20133;-62
2022/01/17 05:37:45;;;;;;;17.27;3.30;;;5.50;99.90;;;;;;5137364;27;20047;-64
2022/01/17 05:40:12;;;;;;;15.70;2.75;;;5.50;99.90;;;;;;5128290;27;20375;-62
2022/01/17 05:42:38;;;;;;;16.58;2.70;;;5.50;99.90;;;;;;5117112;27;20043;-63
2022/01/17 05:45:05;;;;;;;14.80;3.15;;;5.60;99.90;;;;;;5117128;27;20038;-63
2022/01/17 05:47:31;;;;;;;13.82;2.97;;;5.70;99.90;;;;;;5135087;27;20039;-63
2022/01/17 05:49:58;;;;;;;15.10;3.33;;;5.70;99.90;;;;;;5135523;27;20031;-63
2022/01/17 05:52:24;;;;;;;12.13;3.30;;;5.70;99.90;;;;;;5131147;27;20474;-63
2022/01/17 05:54:50;;;;;;;17.95;3.08;;;5.80;99.90;;;;;;5137238;27;20038;-63
2022/01/17 05:57:17;;;;;;;12.85;3.80;;;5.80;99.90;;;;;;5131459;27;20054;-63
2022/01/17 05:59:43;;;;;;;19.48;3.75;;;5.70;99.90;;;;;;5118034;27;20041;-64
2022/01/17 06:02:09;;;;;;;15.43;3.70;;;5.80;99.90;;;;;;5132868;27;20043;-63
2022/01/17 06:04:35;;;;;;;18.75;4.60;;;5.70;99.90;;;;;;5155340;27;20121;-63
2022/01/17 06:07:01;;;;;;;18.48;4.82;;;5.70;99.90;;;;;;5155238;27;20399;-64
2022/01/17 06:09:27;;;;;;;17.02;4.13;;;5.80;99.90;;;;;;5133280;27;20046;-63
2022/01/17 06:11:54;;;;;;;17.10;5.22;;;5.80;99.90;;;;;;5131309;27;20458;-63
2022/01/17 06:14:21;;;;;;;17.25;5.03;;;5.70;99.90;;;;;;5134948;27;20030;-63
2022/01/17 06:16:47;;;;;;;18.60;5.15;;;5.80;99.90;;;;;;5114658;28;20074;-64
2022/01/17 06:19:14;;;;;;;17.75;5.40;;;5.70;99.90;;;;;;5111423;28;20100;-64
2022/01/17 06:21:40;;;;;;;16.00;5.50;;;5.80;99.90;;;;;;5092331;28;20085;-64
2022/01/17 06:24:06;;;;;;;19.38;6.38;;;5.80;99.90;;;;;;5092535;28;20127;-63
2022/01/17 06:26:42;;;;;;;15.20;6.28;;;5.90;99.90;;;;;;5088768;28;20123;-64
2022/01/17 06:29:12;;;;;;;15.82;6.75;;;5.90;99.90;;;;;;5078758;28;20046;-63
2022/01/17 06:31:39;;;;;;;24.00;7.03;;;6.00;99.90;;;;;;5084695;28;20108;-63
2022/01/17 06:34:05;;;;;;;25.00;7.97;;;6.00;99.90;;;;;;5113646;28;20043;-62
2022/01/17 06:36:31;;;;;;;18.20;6.80;;;6.00;99.90;;;;;;5116033;28;20468;-62
2022/01/17 06:39:00;;;;;;;20.67;8.48;;;6.10;99.90;;;;;;5099332;28;20032;-63
2022/01/17 06:41:26;;;;;;;20.98;7.95;;;6.20;99.90;;;;;;5096499;28;20047;-62
2022/01/17 06:43:52;;;;;;;20.60;7.80;;;6.20;99.90;;;;;;5093462;28;20044;-64
2022/01/17 06:46:18;;;;;;;21.35;7.85;;;6.10;99.90;;;;;;5094032;28;20123;-64
2022/01/17 06:48:46;;;;;;;16.63;7.75;;;6.10;99.90;;;;;;5094014;28;20036;-63
2022/01/17 06:51:12;;;;;;;20.70;7.97;;;6.10;99.90;;;;;;5109643;28;20066;-63
2022/01/17 06:53:38;;;;;;;21.63;8.05;;;6.20;99.90;;;;;;5095926;28;20032;-65
2022/01/17 06:56:04;;;;;;;26.33;8.05;;;6.20;99.90;;;;;;5095498;28;20096;-63
2022/01/17 06:58:31;;;;;;;21.42;8.82;;;6.10;99.90;;;;;;5077329;28;20075;-63
2022/01/17 07:00:57;;;;;;;25.05;8.02;;;6.10;99.90;;;;;;5081207;28;20046;-64
2022/01/17 07:03:22;;;;;;;16.50;7.53;;;6.10;99.90;;;;;;5095929;28;20035;-63
2022/01/17 07:05:48;;;;;;;22.48;7.45;;;6.10;99.90;;;;;;5113104;28;20047;-63
2022/01/17 07:08:14;;;;;;;22.67;7.78;;;6.10;99.90;;;;;;5095326;28;20040;-63
2022/01/17 07:10:39;;;;;;;29.98;9.38;;;6.20;99.90;;;;;;5094670;28;20503;-63
2022/01/17 07:13:05;;;;;;;21.23;7.38;;;6.20;99.90;;;;;;5095792;28;20047;-63
2022/01/17 07:15:32;;;;;;;23.05;7.40;;;6.20;99.90;;;;;;5080633;27;20040;-62
2022/01/17 07:17:58;;;;;;;21.02;7.68;;;6.20;99.90;;;;;;5115953;28;20039;-63
2022/01/17 07:20:24;;;;;;;25.23;7.68;;;6.10;99.90;;;;;;5116176;28;20054;-64
2022/01/17 07:22:50;;;;;;;22.20;6.93;;;6.20;99.90;;;;;;5133542;27;20364;-64
2022/01/17 07:25:16;;;;;;;25.55;7.50;;;6.20;99.90;;;;;;5119613;28;20041;-63
2022/01/17 07:27:42;;;;;;;20.38;6.55;;;6.20;99.90;;;;;;5122646;28;20031;-64
2022/01/17 07:30:10;;;;;;;19.27;5.93;;;6.10;99.90;;;;;;5116078;28;20050;-64
2022/01/17 07:32:36;;;;;;;25.23;6.93;;;6.20;99.90;;;;;;5121859;27;20088;-64
2022/01/17 07:35:03;;;;;;;25.92;7.10;;;6.20;99.90;;;;;;5119821;27;20084;-65
2022/01/17 07:37:32;;;;;;;31.40;7.43;;;6.20;99.90;;;;;;5137989;27;20398;-65
2022/01/17 07:39:58;;;;;;;24.02;6.90;;;6.20;99.90;;;;;;5137874;27;20031;-63
2022/01/17 07:42:23;;;;;;;24.88;6.75;;;6.30;99.90;;;;;;5119567;27;20378;-63
2022/01/17 07:44:54;;;;;;;28.33;5.95;;;6.20;99.90;;;;;;5102534;27;20091;-63
2022/01/17 07:47:37;;;;;;;21.85;5.95;;;6.20;99.90;;;;;;5119573;27;20039;-63
2022/01/17 07:50:03;;;;;;;25.38;6.47;;;6.20;99.90;;;;;;5136411;27;20047;-63
2022/01/17 07:52:29;;;;;;;23.17;5.50;;;6.20;99.90;;;;;;5119371;27;20046;-63
2022/01/17 07:54:55;;;;;;;22.17;5.28;;;6.10;99.90;;;;;;5119494;27;20034;-64
2022/01/17 07:57:23;;;;;;;18.35;5.18;;;6.10;99.90;;;;;;5120104;27;20118;-62
2022/01/17 07:59:49;;;;;;;22.38;5.75;;;6.20;99.90;;;;;;5119014;27;20486;-62
2022/01/17 08:02:15;;;;;;;23.98;5.13;;;6.20;99.90;;;;;;5119241;27;20043;-63
2022/01/17 08:04:40;;;;;;;26.35;4.93;;;6.30;99.90;;;;;;5119010;27;20055;-62
2022/01/17 08:07:07;;;;;;;19.75;4.65;;;6.20;99.90;;;;;;5119408;27;20367;-63
2022/01/17 08:09:34;;;;;;;30.13;4.70;;;6.20;99.90;;;;;;5119402;27;20105;-63
2022/01/17 08:12:01;;;;;;;21.10;4.95;;;6.20;99.90;;;;;;5119159;27;20479;-63
2022/01/17 08:14:27;;;;;;;24.63;5.28;;;6.30;99.90;;;;;;5119085;27;20120;-63
2022/01/17 08:16:53;;;;;;;28.60;5.28;;;6.30;99.90;;;;;;5118725;27;20447;-64
2022/01/17 08:19:23;;;;;;;26.20;4.93;;;6.30;99.90;;;;;;5118710;27;20035;-63
2022/01/17 08:21:51;;;;;;;30.45;4.85;;;6.40;99.90;;;;;;5119241;27;20439;-63
2022/01/17 08:24:18;;;;;;;24.75;4.63;;;6.40;99.90;;;;;;5136174;27;20082;-63
2022/01/17 08:26:44;;;;;;;25.02;5.35;;;6.50;99.90;;;;;;5119002;27;20061;-63
2022/01/17 08:29:11;;;;;;;28.15;5.07;;;6.50;99.90;;;;;;5118737;27;20035;-62
2022/01/17 08:31:37;;;;;;;19.17;4.28;;;6.50;99.90;;;;;;5118383;27;20039;-63
2022/01/17 08:34:03;;;;;;;18.67;4.05;;;6.50;99.90;;;;;;5119087;27;20126;-63
2022/01/17 08:36:29;;;;;;;29.08;5.20;;;6.60;99.90;;;;;;5118846;27;20448;-63
2022/01/17 08:38:54;;;;;;;24.70;4.28;;;6.60;99.90;;;;;;5101747;27;20035;-64
2022/01/17 08:41:20;;;;;;;24.60;4.45;;;6.60;99.90;;;;;;5117797;27;20050;-61
2022/01/17 08:43:47;;;;;;;23.95;4.22;;;6.70;99.90;;;;;;5136384;27;20480;-63
2022/01/17 08:46:13;;;;;;;26.05;4.88;;;6.70;99.90;;;;;;5101445;27;20474;-62
2022/01/17 08:48:40;;;;;;;22.70;4.50;;;6.80;99.90;;;;;;5118523;27;20035;-63
2022/01/17 08:51:07;;;;;;;20.85;5.00;;;6.80;99.90;;;;;;5102953;28;20122;-62
2022/01/17 08:53:33;;;;;;;27.20;4.60;;;6.80;99.90;;;;;;5120005;27;20122;-63
2022/01/17 08:56:00;;;;;;;26.65;4.90;;;6.80;99.90;;;;;;5116821;27;20042;-63
2022/01/17 08:58:26;;;;;;;23.02;3.90;;;6.90;99.90;;;;;;5107623;28;20155;-63
2022/01/17 09:00:52;;;;;;;22.60;5.05;;;6.90;99.90;;;;;;5128652;27;20047;-63
2022/01/17 09:03:19;;;;;;;29.05;4.80;;;6.90;99.90;;;;;;5118042;27;20039;-64
2022/01/17 09:05:46;;;;;;;24.20;4.38;;;6.90;99.90;;;;;;5136213;27;20035;-63
2022/01/17 09:08:12;;;;;;;21.25;4.47;;;7.00;99.90;;;;;;5103903;27;20125;-63
2022/01/17 09:10:38;;;;;;;26.30;4.47;;;7.00;99.90;;;;;;5112426;27;20032;-64
2022/01/17 09:13:07;;;;;;;29.15;5.43;;;7.10;99.90;;;;;;5117825;27;20050;-63
2022/01/17 09:15:32;;;;;;;39.40;6.05;;;7.20;99.90;;;;;;5124096;27;20100;-63
2022/01/17 09:17:58;;;;;;;29.25;4.93;;;7.10;99.90;;;;;;5097335;28;20040;-64
2022/01/17 09:20:24;;;;;;;27.90;4.97;;;7.10;99.90;;;;;;5124024;27;20133;-63
2022/01/17 09:22:50;;;;;;;24.75;4.43;;;7.20;99.90;;;;;;5117526;27;20031;-63
2022/01/17 09:25:16;;;;;;;27.85;4.88;;;7.20;99.90;;;;;;5100527;27;20092;-63
2022/01/17 09:27:42;;;;;;;27.35;5.75;;;7.20;99.90;;;;;;5117496;27;20039;-63
2022/01/17 09:30:11;;;;;;;22.73;4.43;;;7.30;99.90;;;;;;5111073;28;20384;-63
2022/01/17 09:32:37;;;;;;;31.30;5.65;;;7.30;99.90;;;;;;5132676;27;20039;-64
2022/01/17 09:35:04;;;;;;;25.88;4.60;;;7.30;99.90;;;;;;5126876;27;20032;-64
2022/01/17 09:37:30;;;;;;;22.95;4.93;;;7.40;99.90;;;;;;5114857;27;20035;-63
2022/01/17 09:39:56;;;;;;;29.00;5.07;;;7.50;99.90;;;;;;5116384;27;20473;-63
2022/01/17 09:42:22;;;;;;;24.65;5.13;;;7.50;99.90;;;;;;5134230;27;20086;-64
2022/01/17 09:44:47;;;;;;;39.20;5.60;;;7.60;99.90;;;;;;5133049;27;20043;-64
2022/01/17 09:47:14;;;;;;;28.30;5.95;;;7.60;99.90;;;;;;5134049;27;20046;-65
2022/01/17 09:49:42;;;;;;;28.95;5.25;;;7.70;99.90;;;;;;5132409;27;20157;-64
2022/01/17 09:52:34;;;;;;;27.42;5.85;;;7.70;99.90;;;;;;5114041;28;20051;-63
2022/01/17 09:55:21;;;;;;;31.33;6.00;;;7.70;99.90;;;;;;5113209;28;20485;-65
2022/01/17 09:57:46;;;;;;;30.08;5.75;;;7.80;99.90;;;;;;5113938;28;20047;-63
2022/01/17 10:00:14;;;;;;;31.92;5.38;;;7.80;99.90;;;;;;5120395;27;20031;-63
2022/01/17 10:02:40;;;;;;;32.42;6.65;;;7.80;99.90;;;;;;5134670;27;20038;-63
2022/01/17 10:05:08;;;;;;;35.35;6.00;;;7.80;99.90;;;;;;5116551;27;20071;-63
2022/01/17 10:07:54;;;;;;;24.73;4.80;;;7.90;99.90;;;;;;5134718;27;20050;-63
2022/01/17 10:10:59;;;;;;;27.42;5.63;;;7.90;99.90;;;;;;5126628;27;20124;-64
2022/01/17 10:13:28;;;;;;;31.83;4.88;;;8.00;99.90;;;;;;5113996;28;20106;-64
2022/01/17 10:16:11;;;;;;;28.33;5.82;;;8.00;99.90;;;;;;5112966;28;20055;-64
2022/01/17 10:18:46;;;;;;;29.15;5.50;;;8.10;99.90;;;;;;5113400;28;20039;-65
2022/01/17 10:21:34;;;;;;;35.17;5.57;;;8.10;99.90;;;;;;5114650;28;20088;-62
2022/01/17 10:35:18;;;;;;;26.23;5.35;;;8.30;99.90;;;;;;5133679;28;20081;-65
2022/01/17 10:38:08;;;;;;;26.05;4.82;;;8.30;99.90;;;;;;5132805;28;20050;-64
2022/01/17 10:40:39;;;;;;;26.95;5.10;;;8.40;99.90;;;;;;5133081;27;20538;-64
2022/01/17 10:43:06;;;;;;;28.67;6.18;;;8.40;99.90;;;;;;5134118;28;20043;-64
2022/01/17 10:45:43;;;;;;;33.65;5.55;;;8.40;99.90;;;;;;5115699;28;20039;-64
2022/01/17 10:48:09;;;;;;;32.58;5.75;;;8.40;99.90;;;;;;5115627;28;20061;-64
2022/01/17 10:50:45;;;;;;;32.60;5.13;;;8.50;99.90;;;;;;5114871;28;20505;-63
2022/01/17 10:53:16;;;;;;;23.15;6.32;;;8.50;99.90;;;;;;5133925;28;20046;-65
2022/01/17 10:55:54;;;;;;;28.40;5.70;;;8.50;99.90;;;;;;5115138;28;20035;-65
2022/01/17 10:58:31;;;;;;;39.67;7.32;;;8.60;99.90;;;;;;5133675;28;20124;-65
2022/01/17 11:01:02;;;;;;;39.58;6.55;;;8.60;99.90;;;;;;5133094;28;20047;-66
2022/01/17 11:03:33;;;;;;;36.22;5.95;;;8.60;99.90;;;;;;5133585;28;20042;-64
2022/01/17 11:06:05;;;;;;;40.35;8.35;;;8.50;99.90;;;;;;5114743;27;20473;-64
2022/01/17 11:08:33;;;;;;;38.25;6.43;;;8.50;99.90;;;;;;5119460;27;20100;-64
2022/01/17 11:11:02;;;;;;;36.85;6.65;;;8.60;99.90;;;;;;5124886;27;20108;-64
2022/01/17 11:13:32;;;;;;;37.95;6.75;;;8.60;99.90;;;;;;5098858;28;20039;-64
2022/01/17 11:16:00;;;;;;;32.47;6.07;;;8.70;99.90;;;;;;5092754;28;20457;-65
2022/01/17 11:18:31;;;;;;;34.00;6.50;;;8.80;99.90;;;;;;5096625;28;20071;-65
2022/01/17 11:21:00;;;;;;;37.55;7.20;;;8.90;99.90;;;;;;5108947;28;20399;-66
2022/01/17 11:23:27;;;;;;;36.35;7.90;;;9.00;99.90;;;;;;5097849;28;20078;-65
2022/01/17 11:25:55;;;;;;;37.00;8.65;;;9.10;99.90;;;;;;5117005;28;20096;-65
2022/01/17 11:28:27;;;;;;;45.85;10.48;;;9.00;99.90;;;;;;5116985;28;20130;-65
2022/01/17 11:30:55;;;;;;;44.35;13.15;;;9.00;99.90;;;;;;5116147;28;20042;-66
2022/01/17 11:33:22;;;;;;;53.53;15.25;;;9.00;99.90;;;;;;5098772;28;20110;-65
2022/01/17 11:35:52;;;;;;;57.97;17.35;;;9.00;99.90;;;;;;5116252;28;20479;-65
2022/01/17 11:38:40;;;;;;;59.08;16.75;;;9.00;99.90;;;;;;5116788;28;20054;-65
2022/01/17 11:41:19;;;;;;;57.53;15.18;;;9.10;99.90;;;;;;5115148;28;20055;-65
2022/01/17 11:43:58;;;;;;;41.33;9.23;;;9.10;99.90;;;;;;5098308;28;20047;-65
2022/01/17 11:46:27;;;;;;;46.30;10.77;;;9.10;99.90;;;;;;5098192;28;20129;-65
2022/01/17 11:49:08;;;;;;;42.50;10.73;;;9.00;99.90;;;;;;5081392;28;20054;-66
2022/01/17 11:51:48;;;;;;;40.47;8.45;;;9.00;99.90;;;;;;5098140;28;20048;-65
2022/01/17 11:54:19;;;;;;;34.83;6.90;;;9.00;99.90;;;;;;5115757;28;20704;-65
2022/01/17 11:57:06;;;;;;;32.70;6.65;;;9.00;99.90;;;;;;5116193;28;20036;-66
2022/01/17 11:59:44;;;;;;;38.60;8.15;;;9.10;99.90;;;;;;5115939;28;20128;-64
2022/01/17 12:02:49;;;;;;;39.90;8.43;;;9.10;99.90;;;;;;5095331;28;20055;-65
2022/01/17 12:05:15;;;;;;;40.65;9.60;;;9.10;99.90;;;;;;5061617;28;20074;-64
2022/01/17 12:07:55;;;;;;;43.80;11.05;;;9.20;99.90;;;;;;5095368;28;20044;-65
2022/01/17 12:10:24;;;;;;;44.58;9.52;;;9.20;99.90;;;;;;5102531;28;20358;-64
2022/01/17 12:13:16;;;;;;;44.10;9.40;;;9.30;99.90;;;;;;5116025;28;20138;-65
2022/01/17 12:16:15;;;;;;;48.17;8.65;;;9.40;99.90;;;;;;5115370;28;20101;-64
2022/01/17 12:18:46;;;;;;;34.20;6.63;;;9.40;99.90;;;;;;5097002;28;20461;-66
2022/01/17 12:21:40;;;;;;;42.33;7.35;;;9.40;99.90;;;;;;5114982;28;20349;-65
2022/01/17 12:24:18;;;;;;;43.15;7.20;;;9.50;99.90;;;;;;5115191;28;20108;-65
2022/01/17 12:27:04;;;;;;;29.52;6.47;;;9.50;99.90;;;;;;5097097;28;20391;-65
2022/01/17 12:30:09;;;;;;;38.17;6.63;;;9.60;99.90;;;;;;5115121;28;20369;-65
2022/01/17 12:32:36;;;;;;;36.83;7.28;;;9.60;99.90;;;;;;5112697;28;20051;-65
2022/01/17 12:35:05;;;;;;;38.22;6.82;;;9.60;99.90;;;;;;5096856;28;20043;-65
2022/01/17 12:38:03;;;;;;;36.05;7.68;;;9.60;99.90;;;;;;5097443;28;20122;-64
2022/01/17 12:40:42;;;;;;;39.83;10.10;;;9.60;99.90;;;;;;5097041;28;20075;-64
2022/01/17 12:43:14;;;;;;;50.17;12.73;;;9.70;99.90;;;;;;5115459;28;20169;-64
2022/01/17 12:45:41;;;;;;;57.83;15.07;;;9.70;99.90;;;;;;5114815;28;20035;-64
2022/01/17 12:48:09;;;;;;;59.70;13.38;;;9.70;99.90;;;;;;5096918;28;20047;-63
2022/01/17 12:50:37;;;;;;;48.70;12.07;;;9.80;99.90;;;;;;5114479;28;20043;-64
2022/01/17 12:53:06;;;;;;;44.67;8.13;;;9.70;99.90;;;;;;5115195;28;20084;-65
2022/01/17 12:55:36;;;;;;;44.42;9.07;;;9.70;99.90;;;;;;5114518;28;20040;-63
2022/01/17 12:58:11;;;;;;;39.13;8.25;;;9.70;99.90;;;;;;5096937;28;20104;-64
2022/01/17 13:00:37;;;;;;;36.63;8.23;;;9.70;99.90;;;;;;5096120;28;20044;-64
2022/01/17 13:03:03;;;;;;;42.00;9.95;;;9.70;99.90;;;;;;5096802;28;20049;-63
2022/01/17 13:05:35;;;;;;;37.83;8.68;;;9.60;99.90;;;;;;5096450;28;20039;-64
2022/01/17 13:08:04;;;;;;;46.25;9.63;;;9.60;99.90;;;;;;5096741;28;20138;-63
2022/01/17 13:10:30;;;;;;;46.38;10.20;;;9.60;99.90;;;;;;5113802;28;20044;-64
2022/01/17 13:12:57;;;;;;;46.60;8.80;;;9.60;99.90;;;;;;5096768;28;20337;-65
2022/01/17 13:15:23;;;;;;;52.92;10.63;;;9.60;99.90;;;;;;5115135;27;20107;-65
2022/01/17 13:17:51;;;;;;;42.33;9.50;;;9.50;99.90;;;;;;5135096;27;20069;-64
2022/01/17 13:20:19;;;;;;;42.03;9.40;;;9.50;99.90;;;;;;5129265;27;20086;-66